createdAt,value
2019-02-07T00:00:51.255Z,100991.16
2019-02-07T00:03:20.553Z,100973.40
2019-02-07T00:05:49.946Z,100983.64
2019-02-07T00:08:19.432Z,100980.59
2019-02-07T00:10:48.659Z,100966.41
2019-02-07T00:13:17.915Z,100956.59
2019-02-07T00:15:47.175Z,100952.65
2019-02-07T00:18:16.447Z,100947.76
2019-02-07T00:20:45.685Z,100945.09
2019-02-07T00:23:15.213Z,100948.18
2019-02-07T00:25:44.438Z,100936.66
2019-02-07T00:28:13.699Z,100918.05
2019-02-07T00:30:42.955Z,100918.57
2019-02-07T00:33:12.184Z,100923.91
2019-02-07T00:35:41.379Z,100906.53
2019-02-07T00:38:11.584Z,100903.73
2019-02-07T00:40:40.961Z,100900.30
2019-02-07T00:43:10.500Z,100890.07
2019-02-07T00:45:39.748Z,100889.97
2019-02-07T00:48:08.969Z,100867.70
2019-02-07T00:50:38.243Z,100865.09
2019-02-07T00:53:07.947Z,100853.98
2019-02-07T00:55:37.122Z,100844.14
2019-02-07T00:58:06.388Z,100836.00
2019-02-07T01:00:35.669Z,100832.42
2019-02-07T01:03:04.921Z,100824.48
2019-02-07T01:05:34.120Z,100818.57
2019-02-07T01:08:03.950Z,100810.05
2019-02-07T01:10:33.206Z,100802.05
2019-02-07T01:13:02.390Z,100808.99
2019-02-07T01:15:32.236Z,100800.09
2019-02-07T01:18:01.657Z,100803.50
2019-02-07T01:20:30.926Z,100787.39
2019-02-07T01:23:00.370Z,100793.59
2019-02-07T01:25:29.553Z,100788.14
2019-02-07T01:27:58.767Z,100770.56
2019-02-07T01:30:29.491Z,100770.56
2019-02-07T01:32:58.670Z,100766.95
2019-02-07T01:35:27.930Z,100761.55
2019-02-07T01:37:57.133Z,100752.64
2019-02-07T01:40:26.318Z,100750.78
2019-02-07T01:42:55.944Z,100751.64
2019-02-07T01:45:25.732Z,100737.38
2019-02-07T01:47:55.003Z,100737.33
2019-02-07T01:50:27.812Z,100729.66
2019-02-07T01:52:57.024Z,100723.91
2019-02-07T01:55:26.284Z,100718.98
2019-02-07T01:57:55.468Z,100714.93
2019-02-07T02:00:25.254Z,100710.39
2019-02-07T02:02:54.450Z,100700.20
2019-02-07T02:05:23.714Z,100694.33
2019-02-07T02:07:52.933Z,100685.38
2019-02-07T02:10:24.713Z,100676.34
2019-02-07T02:12:53.892Z,100669.32
2019-02-07T02:15:25.237Z,100676.61
2019-02-07T02:17:54.594Z,100669.46
2019-02-07T02:20:26.128Z,100648.33
2019-02-07T02:22:55.979Z,100651.73
2019-02-07T02:25:25.431Z,100634.73
2019-02-07T02:27:54.768Z,100634.73
2019-02-07T02:30:32.051Z,100634.20
2019-02-07T02:33:01.607Z,100627.00
2019-02-07T02:35:30.920Z,100619.31
2019-02-07T02:38:00.227Z,100615.53
2019-02-07T02:40:29.516Z,100607.94
2019-02-07T02:42:58.706Z,100597.20
2019-02-07T02:45:37.090Z,100581.83
2019-02-07T02:47:58.924Z,100581.83
2019-02-07T02:50:28.106Z,100582.30
2019-02-07T02:52:57.382Z,100578.71
2019-02-07T02:55:28.199Z,100565.20
2019-02-07T02:57:57.380Z,100560.28
2019-02-07T03:00:40.509Z,100541.47
2019-02-07T03:03:20.082Z,100541.47
2019-02-07T03:06:09.155Z,100546.39
2019-02-07T03:08:57.858Z,100536.13
2019-02-07T03:11:47.142Z,100531.23
2019-02-07T03:14:23.706Z,100522.48
2019-02-07T03:17:03.730Z,100502.46
2019-02-07T03:19:37.302Z,100502.46
2019-02-07T03:22:20.253Z,100513.39
2019-02-07T03:25:07.114Z,100507.13
2019-02-07T03:27:56.053Z,100506.44
2019-02-07T03:30:43.141Z,100488.61
2019-02-07T03:33:16.441Z,100488.61
2019-02-07T03:35:47.263Z,100482.72
2019-02-07T03:38:18.091Z,100483.30
2019-02-07T03:40:49.410Z,100479.67
2019-02-07T03:43:35.211Z,100472.93
2019-02-07T03:46:09.579Z,100464.68
2019-02-07T03:48:46.239Z,100464.68
2019-02-07T03:51:17.076Z,100452.42
2019-02-07T03:53:50.544Z,100437.98
2019-02-07T03:56:30.257Z,100437.98
2019-02-07T03:59:12.835Z,100439.31
2019-02-07T04:01:55.435Z,100445.46
2019-02-07T04:04:26.435Z,100431.66
2019-02-07T04:07:03.058Z,100440.03
2019-02-07T04:09:43.152Z,100440.03
2019-02-07T04:12:30.236Z,100429.84
2019-02-07T04:15:02.917Z,100410.36
2019-02-07T04:17:42.874Z,100416.56
2019-02-07T04:20:14.113Z,100412.78
2019-02-07T04:23:02.868Z,100412.78
2019-02-07T04:25:34.263Z,100405.73
2019-02-07T04:28:10.584Z,100399.36
2019-02-07T04:30:52.920Z,100404.62
2019-02-07T04:33:39.900Z,100385.00
2019-02-07T04:36:13.443Z,100385.00
2019-02-07T04:38:47.606Z,100386.64
2019-02-07T04:41:21.311Z,100387.13
2019-02-07T04:44:08.064Z,100376.03
2019-02-07T04:46:44.466Z,100366.22
2019-02-07T04:49:24.159Z,100363.16
2019-02-07T04:52:10.344Z,100363.16
2019-02-07T04:54:47.117Z,100359.37
2019-02-07T04:57:17.862Z,100362.67
2019-02-07T05:00:03.376Z,100358.73
2019-02-07T05:02:46.392Z,100358.73
2019-02-07T05:05:20.081Z,100367.46
2019-02-07T05:07:50.912Z,100356.84
2019-02-07T05:10:21.902Z,100357.73
2019-02-07T05:12:52.955Z,100348.84
2019-02-07T05:15:26.766Z,100332.20
2019-02-07T05:18:09.921Z,100334.70
2019-02-07T05:20:40.884Z,100334.70
2019-02-07T05:23:14.310Z,100333.44
2019-02-07T05:25:51.057Z,100333.06
2019-02-07T05:28:38.177Z,100337.08
2019-02-07T05:31:08.910Z,100332.03
2019-02-07T05:33:42.736Z,100325.65
2019-02-07T05:36:19.371Z,100325.65
2019-02-07T05:38:52.845Z,100317.89
2019-02-07T05:41:26.804Z,100333.44
2019-02-07T05:44:09.440Z,100333.44
2019-02-07T05:46:52.078Z,100326.91
2019-02-07T05:49:28.809Z,100360.80
2019-02-07T05:51:59.681Z,100360.80
2019-02-07T05:54:46.752Z,100372.33
2019-02-07T05:57:23.338Z,100367.62
2019-02-07T06:00:00.459Z,100362.42
2019-02-07T06:02:40.131Z,100360.70
2019-02-07T06:05:30.184Z,100380.97
2019-02-07T06:08:06.787Z,100355.03
2019-02-07T06:10:53.824Z,100355.03
2019-02-07T06:13:40.804Z,100375.98
2019-02-07T06:16:17.409Z,100380.36
2019-02-07T06:18:53.796Z,100380.36
2019-02-07T06:21:33.340Z,100390.39
2019-02-07T06:24:04.208Z,100390.39
2019-02-07T06:26:35.041Z,100387.48
2019-02-07T06:29:21.140Z,100378.83
2019-02-07T06:31:51.998Z,100381.30
2019-02-07T06:34:39.076Z,100383.14
2019-02-07T06:37:16.097Z,100389.73
2019-02-07T06:39:58.928Z,100382.86
2019-02-07T06:42:35.284Z,100388.75
2019-02-07T06:45:25.137Z,100381.02
2019-02-07T06:47:55.959Z,100398.34
2019-02-07T06:50:42.951Z,100391.08
2019-02-07T06:53:19.432Z,100399.74
2019-02-07T06:55:58.892Z,100396.11
2019-02-07T06:58:35.829Z,100396.44
2019-02-07T07:01:15.946Z,100405.39
2019-02-07T07:03:46.763Z,100392.91
2019-02-07T07:06:17.952Z,100416.62
2019-02-07T07:09:04.711Z,100401.95
2019-02-07T07:11:47.516Z,100398.56
2019-02-07T07:14:34.999Z,100373.59
2019-02-07T07:17:11.830Z,100402.42
2019-02-07T07:19:42.672Z,100395.03
2019-02-07T07:22:13.497Z,100417.63
2019-02-07T07:24:46.774Z,100401.76
2019-02-07T07:27:23.336Z,100398.61
2019-02-07T07:30:08.984Z,100404.11
2019-02-07T07:32:40.123Z,100417.02
2019-02-07T07:35:27.021Z,100401.57
2019-02-07T07:38:00.403Z,100426.89
2019-02-07T07:40:31.214Z,100413.02
2019-02-07T07:43:18.482Z,100409.09
2019-02-07T07:46:04.355Z,100417.02
2019-02-07T07:48:35.204Z,100424.00
2019-02-07T07:51:08.882Z,100422.19
2019-02-07T07:53:39.794Z,100389.66
2019-02-07T07:56:10.567Z,100429.34
2019-02-07T07:58:44.220Z,100448.30
2019-02-07T08:01:31.204Z,100451.64
2019-02-07T08:04:18.391Z,100452.21
2019-02-07T08:06:49.235Z,100447.52
2019-02-07T08:09:20.127Z,100447.52
2019-02-07T08:12:06.963Z,100448.47
2019-02-07T08:14:37.800Z,100460.09
2019-02-07T08:17:08.698Z,100457.92
2019-02-07T08:19:42.526Z,100452.69
2019-02-07T08:22:15.905Z,100470.87
2019-02-07T08:25:05.066Z,100459.61
2019-02-07T08:27:35.885Z,100473.41
2019-02-07T08:30:12.323Z,100462.75
2019-02-07T08:32:43.145Z,100459.58
2019-02-07T08:35:30.345Z,100461.27
2019-02-07T08:38:01.559Z,100475.27
2019-02-07T08:40:44.139Z,100476.31
2019-02-07T08:43:17.671Z,100463.80
2019-02-07T08:45:57.727Z,100480.91
2019-02-07T08:48:28.597Z,100474.18
2019-02-07T08:51:14.725Z,100467.92
2019-02-07T08:53:51.351Z,100475.34
2019-02-07T08:56:25.447Z,100466.78
2019-02-07T08:58:59.264Z,100481.52
2019-02-07T09:01:46.262Z,100481.00
2019-02-07T09:04:25.775Z,100463.73
2019-02-07T09:07:12.317Z,100485.98
2019-02-07T09:09:45.948Z,100476.74
2019-02-07T09:12:25.598Z,100463.95
2019-02-07T09:14:56.414Z,100464.16
2019-02-07T09:17:29.710Z,100476.70
2019-02-07T09:20:09.302Z,100461.74
2019-02-07T09:22:55.031Z,100461.74
2019-02-07T09:25:25.883Z,100467.42
2019-02-07T09:28:08.486Z,100450.45
2019-02-07T09:30:42.038Z,100473.34
2019-02-07T09:33:29.307Z,100466.22
2019-02-07T09:36:10.102Z,100469.05
2019-02-07T09:38:57.675Z,100471.50
2019-02-07T09:41:28.516Z,100472.70
2019-02-07T09:44:01.975Z,100489.06
2019-02-07T09:46:44.669Z,100483.00
2019-02-07T09:49:18.377Z,100477.78
2019-02-07T09:52:04.362Z,100459.60
2019-02-07T09:54:53.503Z,100477.20
2019-02-07T09:57:24.333Z,100474.36
2019-02-07T10:00:07.002Z,100487.55
2019-02-07T10:02:40.633Z,100468.45
2019-02-07T10:05:12.931Z,100468.45
2019-02-07T10:07:49.501Z,100476.39
2019-02-07T10:10:26.241Z,100476.39
2019-02-07T10:12:59.933Z,100479.92
2019-02-07T10:15:36.327Z,100477.80
2019-02-07T10:18:16.406Z,100477.89
2019-02-07T10:21:03.162Z,100469.23
2019-02-07T10:23:46.411Z,100469.23
2019-02-07T10:26:33.617Z,100473.84
2019-02-07T10:29:19.563Z,100458.63
2019-02-07T10:31:50.503Z,100458.63
2019-02-07T10:34:27.378Z,100449.59
2019-02-07T10:37:07.093Z,100454.44
2019-02-07T10:39:40.712Z,100454.44
2019-02-07T10:42:12.807Z,100454.05
2019-02-07T10:44:49.239Z,100463.09
2019-02-07T10:47:22.639Z,100482.88
2019-02-07T10:49:59.703Z,100482.88
2019-02-07T10:52:42.815Z,100487.44
2019-02-07T10:55:19.459Z,100478.41
2019-02-07T10:57:50.356Z,100484.53
2019-02-07T11:00:37.728Z,100463.89
2019-02-07T11:03:14.763Z,100470.14
2019-02-07T11:05:48.368Z,100470.14
2019-02-07T11:08:27.971Z,100467.59
2019-02-07T11:11:07.447Z,100465.42
2019-02-07T11:13:40.895Z,100460.35
2019-02-07T11:16:14.435Z,100480.16
2019-02-07T11:19:00.310Z,100456.73
2019-02-07T11:21:31.156Z,100452.27
2019-02-07T11:24:04.452Z,100452.41
2019-02-07T11:26:41.210Z,100474.81
2019-02-07T11:29:17.881Z,100474.81
2019-02-07T11:32:06.573Z,100457.75
2019-02-07T11:34:41.602Z,100447.92
2019-02-07T11:37:12.413Z,100447.92
2019-02-07T11:39:45.794Z,100449.34
2019-02-07T11:42:32.768Z,100456.20
2019-02-07T11:45:03.951Z,100454.30
2019-02-07T11:47:34.783Z,100454.30
2019-02-07T11:50:16.721Z,100455.96
2019-02-07T11:53:03.899Z,100455.96
2019-02-07T11:55:40.594Z,100447.33
2019-02-07T11:58:23.392Z,100444.24
2019-02-07T12:01:09.221Z,100443.84
2019-02-07T12:03:52.093Z,100451.48
2019-02-07T12:06:31.510Z,100451.48
2019-02-07T12:09:08.036Z,100457.13
2019-02-07T12:11:41.307Z,100440.45
2019-02-07T12:14:15.074Z,100446.17
2019-02-07T12:16:54.751Z,100451.08
2019-02-07T12:19:37.719Z,100456.80
2019-02-07T12:22:17.653Z,100445.88
2019-02-07T12:24:54.727Z,100450.37
2019-02-07T12:27:31.738Z,100451.08
2019-02-07T12:30:18.919Z,100454.50
2019-02-07T12:32:52.198Z,100467.34
2019-02-07T12:35:24.114Z,100446.22
2019-02-07T12:38:12.790Z,100446.22
2019-02-07T12:40:46.231Z,100455.05
2019-02-07T12:43:19.785Z,100445.66
2019-02-07T12:45:53.565Z,100458.55
2019-02-07T12:48:42.639Z,100453.50
2019-02-07T12:51:31.734Z,100450.52
2019-02-07T12:54:17.465Z,100449.89
2019-02-07T12:57:04.608Z,100443.13
2019-02-07T12:59:47.610Z,100443.13
2019-02-07T13:02:27.318Z,100443.98
2019-02-07T13:05:16.186Z,100459.50
2019-02-07T13:07:53.118Z,100459.50
2019-02-07T13:10:32.724Z,100426.87
2019-02-07T13:13:07.496Z,100436.08
2019-02-07T13:15:47.241Z,100436.08
2019-02-07T13:18:20.579Z,100430.55
2019-02-07T13:21:07.550Z,100450.96
2019-02-07T13:23:53.512Z,100456.52
2019-02-07T13:26:24.383Z,100473.06
2019-02-07T13:28:57.807Z,100444.76
2019-02-07T13:31:40.709Z,100444.76
2019-02-07T13:34:28.217Z,100459.73
2019-02-07T13:37:13.888Z,100459.73
2019-02-07T13:39:50.731Z,100455.39
2019-02-07T13:42:37.966Z,100464.52
2019-02-07T13:45:27.913Z,100446.36
2019-02-07T13:48:04.505Z,100465.55
2019-02-07T13:50:44.003Z,100462.88
2019-02-07T13:53:17.763Z,100462.88
2019-02-07T13:55:48.600Z,100475.86
2019-02-07T13:58:37.671Z,100475.86
2019-02-07T14:01:17.682Z,100470.09
2019-02-07T14:03:51.476Z,100469.33
2019-02-07T14:06:38.667Z,100479.45
2019-02-07T14:09:23.762Z,100479.45
2019-02-07T14:11:54.601Z,100486.61
2019-02-07T14:14:28.300Z,100485.26
2019-02-07T14:16:59.133Z,100484.70
2019-02-07T14:19:46.269Z,100484.70
2019-02-07T14:22:20.330Z,100502.87
2019-02-07T14:25:06.634Z,100502.87
2019-02-07T14:27:53.626Z,100500.82
2019-02-07T14:30:24.454Z,100500.82
2019-02-07T14:33:11.460Z,100497.67
2019-02-07T14:35:44.920Z,100497.67
2019-02-07T14:38:15.738Z,100504.66
2019-02-07T14:41:02.656Z,100524.14
2019-02-07T14:43:33.490Z,100525.58
2019-02-07T14:46:06.900Z,100539.86
2019-02-07T14:48:36.109Z,100519.59
2019-02-07T14:51:05.707Z,100545.17
2019-02-07T14:53:34.871Z,100546.13
2019-02-07T14:56:04.176Z,100536.85
2019-02-07T14:58:33.377Z,100536.85
2019-02-07T15:01:02.583Z,100547.91
2019-02-07T15:03:31.769Z,100547.91
2019-02-07T15:06:01.029Z,100547.19
2019-02-07T15:08:30.206Z,100538.39
2019-02-07T15:11:00.199Z,100557.22
2019-02-07T15:13:29.371Z,100558.25
2019-02-07T15:15:58.548Z,100551.64
2019-02-07T15:18:27.776Z,100551.64
2019-02-07T15:20:57.035Z,100560.64
2019-02-07T15:23:26.250Z,100566.83
2019-02-07T15:25:55.449Z,100566.83
2019-02-07T15:28:24.634Z,100572.30
2019-02-07T15:30:53.825Z,100570.11
2019-02-07T15:33:23.378Z,100574.17
2019-02-07T15:35:52.558Z,100574.17
2019-02-07T15:38:21.817Z,100585.87
2019-02-07T15:40:51.884Z,100565.98
2019-02-07T15:43:21.324Z,100587.63
2019-02-07T15:45:50.510Z,100596.63
2019-02-07T15:48:20.132Z,100596.63
2019-02-07T15:50:49.514Z,100591.09
2019-02-07T15:53:18.787Z,100591.09
2019-02-07T15:55:47.939Z,100596.66
2019-02-07T15:58:18.751Z,100606.38
2019-02-07T16:00:49.599Z,100595.52
2019-02-07T16:03:32.126Z,100610.98
2019-02-07T16:06:01.314Z,100611.37
2019-02-07T16:08:30.495Z,100614.64
2019-02-07T16:10:59.675Z,100604.98
2019-02-07T16:13:28.872Z,100618.86
2019-02-07T16:15:58.174Z,100630.98
2019-02-07T16:18:27.364Z,100619.20
2019-02-07T16:20:56.558Z,100627.11
2019-02-07T16:23:25.782Z,100627.73
2019-02-07T16:25:54.884Z,100635.27
2019-02-07T16:28:24.118Z,100640.34
2019-02-07T16:30:53.290Z,100629.84
2019-02-07T16:33:22.539Z,100648.73
2019-02-07T16:35:51.836Z,100647.40
2019-02-07T16:38:21.006Z,100643.39
2019-02-07T16:40:50.196Z,100656.44
2019-02-07T16:43:19.393Z,100649.56
2019-02-07T16:45:48.641Z,100670.03
2019-02-07T16:48:17.821Z,100666.56
2019-02-07T16:50:47.314Z,100667.95
2019-02-07T16:53:16.500Z,100658.21
2019-02-07T16:55:45.993Z,100672.28
2019-02-07T16:58:15.213Z,100672.88
2019-02-07T17:00:44.534Z,100660.34
2019-02-07T17:03:13.782Z,100671.86
2019-02-07T17:05:43.042Z,100680.34
2019-02-07T17:08:12.660Z,100701.84
2019-02-07T17:10:42.309Z,100691.70
2019-02-07T17:13:12.811Z,100697.84
2019-02-07T17:15:42.145Z,100700.65
2019-02-07T17:18:11.404Z,100696.06
2019-02-07T17:20:40.729Z,100699.17
2019-02-07T17:23:09.976Z,100697.84
2019-02-07T17:25:39.922Z,100700.12
2019-02-07T17:28:09.110Z,100709.45
2019-02-07T17:30:38.426Z,100708.28
2019-02-07T17:33:07.605Z,100709.56
2019-02-07T17:35:36.883Z,100716.28
2019-02-07T17:38:06.218Z,100723.30
2019-02-07T17:40:35.573Z,100714.89
2019-02-07T17:43:04.885Z,100728.36
2019-02-07T17:45:34.256Z,100733.16
2019-02-07T17:48:03.428Z,100740.41
2019-02-07T17:50:37.061Z,100731.47
2019-02-07T17:53:08.838Z,100737.61
2019-02-07T17:55:38.007Z,100740.94
2019-02-07T17:58:08.207Z,100744.52
2019-02-07T18:00:47.922Z,100747.46
2019-02-07T18:03:17.098Z,100754.07
2019-02-07T18:05:46.568Z,100753.27
2019-02-07T18:08:15.806Z,100751.12
2019-02-07T18:10:45.049Z,100759.93
2019-02-07T18:13:14.335Z,100756.98
2019-02-07T18:15:43.523Z,100756.19
2019-02-07T18:18:12.763Z,100771.47
2019-02-07T18:20:42.002Z,100763.06
2019-02-07T18:23:11.232Z,100770.61
2019-02-07T18:25:40.400Z,100764.76
2019-02-07T18:28:09.724Z,100770.95
2019-02-07T18:30:38.938Z,100771.42
2019-02-07T18:33:08.102Z,100785.27
2019-02-07T18:35:37.286Z,100776.81
2019-02-07T18:38:06.504Z,100783.58
2019-02-07T18:40:35.670Z,100778.19
2019-02-07T18:43:05.107Z,100779.58
2019-02-07T18:45:34.433Z,100794.38
2019-02-07T18:48:03.669Z,100797.95
2019-02-07T18:50:38.021Z,100797.66
2019-02-07T18:53:07.207Z,100793.35
2019-02-07T18:55:37.851Z,100803.10
2019-02-07T18:58:07.031Z,100801.53
2019-02-07T19:00:38.541Z,100795.92
2019-02-07T19:03:08.725Z,100802.22
2019-02-07T19:05:37.918Z,100813.68
2019-02-07T19:08:07.450Z,100809.63
2019-02-07T19:10:36.980Z,100816.29
2019-02-07T19:13:06.321Z,100819.14
2019-02-07T19:15:53.263Z,100814.72
2019-02-07T19:18:22.472Z,100810.78
2019-02-07T19:20:51.666Z,100817.52
2019-02-07T19:23:21.200Z,100822.48
2019-02-07T19:25:50.300Z,100822.95
2019-02-07T19:28:19.469Z,100826.00
2019-02-07T19:30:48.673Z,100816.86
2019-02-07T19:33:17.864Z,100827.33
2019-02-07T19:35:47.048Z,100832.80
2019-02-07T19:38:16.227Z,100821.33
2019-02-07T19:40:45.454Z,100831.98
2019-02-07T19:43:14.621Z,100830.18
2019-02-07T19:45:43.793Z,100831.98
2019-02-07T19:48:13.075Z,100823.81
2019-02-07T19:50:42.266Z,100833.70
2019-02-07T19:53:11.442Z,100837.17
2019-02-07T19:55:40.880Z,100834.22
2019-02-07T19:58:12.511Z,100841.41
2019-02-07T20:00:41.746Z,100838.22
2019-02-07T20:03:10.972Z,100847.88
2019-02-07T20:05:42.990Z,100856.29
2019-02-07T20:08:12.252Z,100859.05
2019-02-07T20:10:41.456Z,100860.23
2019-02-07T20:13:10.750Z,100857.58
2019-02-07T20:15:42.559Z,100854.91
2019-02-07T20:18:12.273Z,100869.70
2019-02-07T20:20:41.603Z,100859.86
2019-02-07T20:23:10.866Z,100866.99
2019-02-07T20:25:40.739Z,100878.12
2019-02-07T20:28:09.972Z,100870.03
2019-02-07T20:30:41.915Z,100870.59
2019-02-07T20:33:11.106Z,100878.73
2019-02-07T20:35:40.384Z,100872.59
2019-02-07T20:38:11.153Z,100877.58
2019-02-07T20:40:40.460Z,100882.14
2019-02-07T20:43:13.049Z,100879.40
2019-02-07T20:45:42.222Z,100878.48
2019-02-07T20:48:11.477Z,100877.42
2019-02-07T20:50:40.675Z,100881.72
2019-02-07T20:53:10.441Z,100869.78
2019-02-07T20:55:39.623Z,100886.05
2019-02-07T20:58:08.995Z,100894.17
2019-02-07T21:00:39.732Z,100898.16
2019-02-07T21:03:09.081Z,100897.35
2019-02-07T21:05:38.386Z,100900.02
2019-02-07T21:08:07.726Z,100903.54
2019-02-07T21:10:38.558Z,100901.78
2019-02-07T21:13:08.403Z,100912.09
2019-02-07T21:15:37.585Z,100910.76
2019-02-07T21:18:06.917Z,100914.66
2019-02-07T21:20:36.805Z,100923.34
2019-02-07T21:23:06.424Z,100917.98
2019-02-07T21:25:44.305Z,100924.16
2019-02-07T21:28:13.621Z,100929.95
2019-02-07T21:30:42.872Z,100916.17
2019-02-07T21:33:12.184Z,100923.16
2019-02-07T21:35:41.398Z,100929.82
2019-02-07T21:38:10.735Z,100928.41
2019-02-07T21:40:39.938Z,100934.30
2019-02-07T21:43:09.281Z,100932.66
2019-02-07T21:45:38.537Z,100945.98
2019-02-07T21:48:08.770Z,100938.41
2019-02-07T21:50:38.012Z,100940.30
2019-02-07T21:53:07.297Z,100943.83
2019-02-07T21:55:39.105Z,100953.15
2019-02-07T21:58:09.460Z,100955.47
2019-02-07T22:00:43.914Z,100958.56
2019-02-07T22:03:14.034Z,100951.42
2019-02-07T22:05:43.402Z,100952.89
2019-02-07T22:08:12.744Z,100957.95
2019-02-07T22:10:41.993Z,100964.09
2019-02-07T22:13:11.547Z,100965.85
2019-02-07T22:15:40.813Z,100962.03
2019-02-07T22:18:10.131Z,100963.06
2019-02-07T22:20:39.545Z,100971.39
2019-02-07T22:23:08.771Z,100971.09
2019-02-07T22:25:37.967Z,100973.80
2019-02-07T22:28:07.964Z,100973.80
2019-02-07T22:30:38.114Z,100969.76
2019-02-07T22:33:08.430Z,100976.67
2019-02-07T22:35:37.606Z,100971.91
2019-02-07T22:38:07.854Z,100974.73
2019-02-07T22:40:37.355Z,100974.61
2019-02-07T22:43:06.893Z,100969.92
2019-02-07T22:45:36.086Z,100973.02
2019-02-07T22:48:06.143Z,100976.81
2019-02-07T22:50:35.388Z,100979.14
2019-02-07T22:53:06.102Z,100971.70
2019-02-07T22:55:35.340Z,100975.39
2019-02-07T22:58:05.736Z,100975.90
2019-02-07T23:00:39.861Z,100975.08
2019-02-07T23:03:22.055Z,100983.61
2019-02-07T23:05:51.249Z,100969.95
2019-02-07T23:08:20.452Z,100977.94
2019-02-07T23:10:49.786Z,100984.23
2019-02-07T23:13:18.967Z,100980.52
2019-02-07T23:15:48.237Z,100987.52
2019-02-07T23:18:17.728Z,100983.37
2019-02-07T23:20:46.926Z,100981.14
2019-02-07T23:23:16.106Z,100983.68
2019-02-07T23:25:45.315Z,100975.14
2019-02-07T23:28:14.754Z,100979.52
2019-02-07T23:30:43.987Z,100987.23
2019-02-07T23:33:13.176Z,100976.04
2019-02-07T23:35:42.365Z,100973.94
2019-02-07T23:38:11.585Z,100983.55
2019-02-07T23:40:41.156Z,100981.02
2019-02-07T23:43:11.253Z,100981.57
2019-02-07T23:45:40.439Z,100981.18
2019-02-07T23:48:10.928Z,100987.40
2019-02-07T23:50:40.126Z,100988.73
2019-02-07T23:53:14.594Z,100984.43
2019-02-07T23:55:41.013Z,100989.91
2019-02-07T23:58:10.147Z,100989.28
